createdAt,value
2019-02-22T00:04:59.285Z,102051
2019-02-22T00:10:22.100Z,102049
2019-02-22T00:15:44.978Z,102049
2019-02-22T00:21:07.756Z,102051
2019-02-22T00:26:31.139Z,102053
2019-02-22T00:31:54.867Z,102065
2019-02-22T00:37:17.713Z,102079
2019-02-22T00:42:40.466Z,102086
2019-02-22T00:48:03.258Z,102089
2019-02-22T00:53:25.980Z,102100
2019-02-22T00:58:48.722Z,102099
2019-02-22T01:04:11.526Z,102105
2019-02-22T01:09:34.325Z,102114
2019-02-22T01:14:57.127Z,102118
2019-02-22T01:20:19.940Z,102131
2019-02-22T01:25:42.647Z,102144
2019-02-22T01:31:05.443Z,102140
2019-02-22T01:36:31.314Z,102146
2019-02-22T01:41:55.052Z,102146
2019-02-22T01:47:18.626Z,102156
2019-02-22T01:52:41.340Z,102159
2019-02-22T01:58:04.067Z,102155
2019-02-22T02:03:27.599Z,102154
2019-02-22T02:08:51.331Z,102154
2019-02-22T02:14:14.141Z,102161
2019-02-22T02:19:37.506Z,102157
2019-02-22T02:25:00.426Z,102163
2019-02-22T02:30:23.081Z,102161
2019-02-22T02:35:45.788Z,102182
2019-02-22T02:41:11.345Z,102182
2019-02-22T02:46:31.086Z,102190
2019-02-22T02:51:53.813Z,102198
2019-02-22T02:57:16.577Z,102202
2019-02-22T03:02:39.324Z,102210
2019-02-22T03:08:02.156Z,102213
2019-02-22T03:13:25.020Z,102211
2019-02-22T03:18:47.837Z,102217
2019-02-22T03:24:10.585Z,102234
2019-02-22T03:29:33.998Z,102233
2019-02-22T03:34:56.765Z,102245
2019-02-22T03:40:19.568Z,102248
2019-02-22T03:45:42.450Z,102256
2019-02-22T03:51:05.393Z,102262
2019-02-22T03:56:28.274Z,102268
2019-02-22T04:01:50.961Z,102263
2019-02-22T04:07:13.678Z,102267
2019-02-22T04:12:36.440Z,102269
2019-02-22T04:17:59.211Z,102274
2019-02-22T04:23:22.024Z,102283
2019-02-22T04:28:44.769Z,102287
2019-02-22T04:34:07.535Z,102291
2019-02-22T04:39:30.243Z,102298
2019-02-22T04:44:53.012Z,102305
2019-02-22T04:50:15.828Z,102298
2019-02-22T04:55:39.678Z,102305
2019-02-22T05:01:03.201Z,102309
2019-02-22T05:06:26.495Z,102314
2019-02-22T05:11:49.274Z,102326
2019-02-22T05:17:12.100Z,102321
2019-02-22T05:22:34.766Z,102333
2019-02-22T05:27:57.491Z,102343
2019-02-22T05:33:20.599Z,102342
2019-02-22T05:38:43.439Z,102338
2019-02-22T05:44:06.320Z,102341
2019-02-22T05:49:29.040Z,102358
2019-02-22T05:54:51.979Z,102364
2019-02-22T06:00:14.671Z,102365
2019-02-22T06:05:37.634Z,102365
2019-02-22T06:11:00.313Z,102375
2019-02-22T06:16:23.055Z,102385
2019-02-22T06:21:45.980Z,102392
2019-02-22T06:27:09.142Z,102397
2019-02-22T06:32:32.246Z,102399
2019-02-22T06:37:55.337Z,102399
2019-02-22T06:43:18.346Z,102412
2019-02-22T06:48:41.454Z,102418
2019-02-22T06:54:04.463Z,102410
2019-02-22T06:59:27.501Z,102420
2019-02-22T07:04:50.595Z,102432
2019-02-22T07:10:13.634Z,102439
2019-02-22T07:15:36.785Z,102446
2019-02-22T07:20:59.872Z,102456
2019-02-22T07:26:22.893Z,102464
2019-02-22T07:31:45.892Z,102471
2019-02-22T07:37:09.570Z,102478
2019-02-22T07:42:32.632Z,102492
2019-02-22T07:47:55.671Z,102503
2019-02-22T07:53:18.711Z,102514
2019-02-22T07:58:41.814Z,102524
2019-02-22T08:04:04.625Z,102534
2019-02-22T08:09:27.350Z,102538
2019-02-22T08:14:50.067Z,102532
2019-02-22T08:20:12.897Z,102539
2019-02-22T08:25:35.713Z,102545
2019-02-22T08:30:58.480Z,102555
2019-02-22T08:36:21.232Z,102569
2019-02-22T08:41:43.954Z,102573
2019-02-22T08:47:06.648Z,102579
2019-02-22T08:52:29.394Z,102588
2019-02-22T08:57:52.219Z,102593
2019-02-22T09:03:14.910Z,102597
2019-02-22T09:08:37.688Z,102610
2019-02-22T09:14:00.648Z,102614
2019-02-22T09:19:23.533Z,102627
2019-02-22T09:24:47.218Z,102637
2019-02-22T09:30:09.975Z,102650
2019-02-22T09:35:34.354Z,102660
2019-02-22T09:40:55.590Z,102659
2019-02-22T09:46:18.424Z,102675
2019-02-22T09:51:41.368Z,102677
2019-02-22T09:57:03.897Z,102681
2019-02-22T10:02:26.903Z,102679
2019-02-22T10:07:50.765Z,102683
2019-02-22T10:13:13.485Z,102678
2019-02-22T10:18:36.296Z,102680
2019-02-22T10:23:59.032Z,102678
2019-02-22T10:29:21.990Z,102675
2019-02-22T10:34:44.731Z,102679
2019-02-22T10:40:07.442Z,102687
2019-02-22T10:45:30.078Z,102695
2019-02-22T10:50:53.810Z,102705
2019-02-22T10:56:17.671Z,102709
2019-02-22T11:01:40.484Z,102713
2019-02-22T11:07:03.179Z,102715
2019-02-22T11:12:25.853Z,102718
2019-02-22T11:17:48.611Z,102711
2019-02-22T11:23:11.306Z,102719
2019-02-22T11:28:33.960Z,102727
2019-02-22T11:33:58.080Z,102734
2019-02-22T11:39:20.828Z,102732
2019-02-22T11:44:43.706Z,102730
2019-02-22T11:50:06.428Z,102738
2019-02-22T11:55:29.165Z,102745
2019-02-22T12:00:52.604Z,102751
2019-02-22T12:06:15.269Z,102764
2019-02-22T12:11:37.954Z,102759
2019-02-22T12:17:00.662Z,102754
2019-02-22T12:22:24.111Z,102762
2019-02-22T12:27:46.888Z,102765
2019-02-22T12:33:09.692Z,102778
2019-02-22T12:38:32.661Z,102778
2019-02-22T12:43:56.423Z,102782
2019-02-22T12:49:19.605Z,102784
2019-02-22T12:54:43.027Z,102788
2019-02-22T13:00:05.688Z,102788
2019-02-22T13:05:28.390Z,102794
2019-02-22T13:10:51.387Z,102802
2019-02-22T13:16:14.258Z,102795
2019-02-22T13:21:37.288Z,102803
2019-02-22T13:27:00.012Z,102816
2019-02-22T13:32:22.870Z,102816
2019-02-22T13:37:45.549Z,102818
2019-02-22T13:43:08.286Z,102812
2019-02-22T13:48:30.959Z,102815
2019-02-22T13:53:53.640Z,102826
2019-02-22T13:59:16.416Z,102822
2019-02-22T14:04:39.152Z,102819
2019-02-22T14:10:01.918Z,102821
2019-02-22T14:15:24.699Z,102817
2019-02-22T14:20:48.488Z,102806
2019-02-22T14:26:12.217Z,102809
2019-02-22T14:31:34.939Z,102806
2019-02-22T14:36:57.760Z,102816
2019-02-22T14:42:20.485Z,102821
2019-02-22T14:47:45.421Z,102818
2019-02-22T14:53:18.750Z,102820
2019-02-22T14:58:31.776Z,102823
2019-02-22T15:03:54.487Z,102816
2019-02-22T15:09:17.133Z,102822
2019-02-22T15:14:40.372Z,102819
2019-02-22T15:20:03.091Z,102819
2019-02-22T15:25:25.813Z,102826
2019-02-22T15:30:49.170Z,102831
2019-02-22T15:36:12.464Z,102830
2019-02-22T15:41:35.173Z,102824
2019-02-22T15:46:58.434Z,102831
2019-02-22T15:52:22.181Z,102834
2019-02-22T15:57:44.877Z,102841
2019-02-22T16:03:07.653Z,102853
2019-02-22T16:08:30.348Z,102852
2019-02-22T16:13:53.159Z,102859
2019-02-22T16:19:15.849Z,102871
2019-02-22T16:24:38.578Z,102876
2019-02-22T16:30:01.397Z,102881
2019-02-22T16:35:24.130Z,102901
2019-02-22T16:40:47.060Z,102895
2019-02-22T16:46:09.441Z,102892
2019-02-22T16:51:32.378Z,102897
2019-02-22T16:56:55.059Z,102902
2019-02-22T17:02:18.031Z,102907
2019-02-22T17:07:41.563Z,102907
2019-02-22T17:13:04.347Z,102911
2019-02-22T17:18:27.489Z,102911
2019-02-22T17:23:50.352Z,102915
2019-02-22T17:29:13.097Z,102906
2019-02-22T17:34:35.832Z,102926
2019-02-22T17:39:58.688Z,102924
2019-02-22T17:45:21.447Z,102937
2019-02-22T17:50:44.118Z,102941
2019-02-22T17:56:06.761Z,102960
2019-02-22T18:01:29.506Z,102958
2019-02-22T18:06:52.245Z,102945
2019-02-22T18:12:14.927Z,102952
2019-02-22T18:17:38.679Z,102961
2019-02-22T18:23:01.390Z,102952
2019-02-22T18:28:24.075Z,102950
2019-02-22T18:33:46.749Z,102961
2019-02-22T18:39:09.503Z,102952
2019-02-22T18:44:32.247Z,102972
2019-02-22T18:49:54.954Z,102977
2019-02-22T18:55:17.915Z,102960
2019-02-22T19:00:40.644Z,102958
2019-02-22T19:06:03.421Z,102949
2019-02-22T19:11:26.371Z,102963
2019-02-22T19:16:49.048Z,102954
2019-02-22T19:22:12.758Z,102976
2019-02-22T19:27:36.350Z,102978
2019-02-22T19:32:59.257Z,102990
2019-02-22T19:38:21.942Z,102994
2019-02-22T19:43:44.666Z,102982
2019-02-22T19:49:07.396Z,102984
2019-02-22T19:54:30.059Z,102988
2019-02-22T19:59:52.855Z,102999
2019-02-22T20:05:15.529Z,102989
2019-02-22T20:10:38.272Z,102986
2019-02-22T20:16:00.977Z,103006
2019-02-22T20:21:24.819Z,103036
2019-02-22T20:26:47.662Z,103018
2019-02-22T20:32:10.367Z,103016
2019-02-22T20:37:33.199Z,103012
2019-02-22T20:42:57.002Z,103013
2019-02-22T20:48:19.771Z,103015
2019-02-22T20:53:42.544Z,103013
2019-02-22T20:59:08.340Z,103015
2019-02-22T21:04:31.149Z,103026
2019-02-22T21:09:53.893Z,103025
2019-02-22T21:15:16.589Z,103032
2019-02-22T21:20:39.794Z,103042
2019-02-22T21:26:02.624Z,103031
2019-02-22T21:31:25.275Z,103036
2019-02-22T21:36:48.431Z,103026
2019-02-22T21:42:19.802Z,103034
2019-02-22T21:47:35.817Z,103044
2019-02-22T21:52:58.589Z,103049
2019-02-22T21:58:21.299Z,103056
2019-02-22T22:03:44.303Z,103064
2019-02-22T22:09:08.234Z,103074
2019-02-22T22:14:31.001Z,103095
2019-02-22T22:19:55.190Z,103096
2019-02-22T22:25:18.592Z,103099
2019-02-22T22:30:41.337Z,103108
2019-02-22T22:36:04.040Z,103107
2019-02-22T22:41:27.492Z,103113
2019-02-22T22:46:51.258Z,103111
2019-02-22T22:52:14.922Z,103111
2019-02-22T22:57:37.894Z,103105
2019-02-22T23:03:01.611Z,103099
2019-02-22T23:08:24.372Z,103092
2019-02-22T23:13:47.036Z,103075
2019-02-22T23:19:09.816Z,103082
2019-02-22T23:24:32.538Z,103081
2019-02-22T23:29:55.351Z,103084
2019-02-22T23:35:18.051Z,103089
2019-02-22T23:40:40.751Z,103076
2019-02-22T23:46:03.454Z,103079
2019-02-22T23:51:26.131Z,103085
2019-02-22T23:56:48.819Z,103089
